PHTNN EGJB-EGJJ

Flight info

Callsign PHTNN
Flight time 0h 11m
Altitude 3000
Route JSY
Aircraft C400/L-SDGRY/S

Departure

Time 2026-04-24 19:07
Airport Guernsey Airport (EGJB)

Arrival

Time 2026-04-24 19:18
Airport Jersey Airport (EGJJ)
Time Latitude Longitude Altitude Speed Heading
2026-04-24 18:54 49.43289 -2.59455 324 ft 0 kts 177°
2026-04-24 18:56 49.43289 -2.59456 324 ft 0 kts 177°
2026-04-24 18:57 49.43289 -2.59455 324 ft 0 kts 177°
2026-04-24 18:57 49.43289 -2.59456 324 ft 0 kts 177°
2026-04-24 18:57 49.43289 -2.59455 324 ft 0 kts 177°
2026-04-24 18:57 49.43297 -2.59456 324 ft 2 kts 176°
2026-04-24 18:58 49.43313 -2.59457 324 ft 2 kts 177°
2026-04-24 18:58 49.43330 -2.59459 324 ft 2 kts 177°
2026-04-24 18:58 49.43346 -2.59460 324 ft 2 kts 176°
2026-04-24 18:58 49.43363 -2.59461 324 ft 2 kts 204°
2026-04-24 18:59 49.43366 -2.59449 325 ft 0 kts 259°
2026-04-24 19:00 49.43366 -2.59484 324 ft 10 kts 266°
2026-04-24 19:00 49.43362 -2.59616 322 ft 14 kts 269°
2026-04-24 19:01 49.43349 -2.59769 320 ft 14 kts 258°
2026-04-24 19:01 49.43342 -2.59920 318 ft 14 kts 269°
2026-04-24 19:01 49.43339 -2.60073 316 ft 14 kts 264°
2026-04-24 19:01 49.43334 -2.60222 314 ft 13 kts 274°
2026-04-24 19:02 49.43333 -2.60313 312 ft 13 kts 273°
2026-04-24 19:02 49.43327 -2.60488 310 ft 12 kts 267°
2026-04-24 19:02 49.43328 -2.60622 308 ft 13 kts 280°
2026-04-24 19:02 49.43344 -2.60757 306 ft 13 kts 280°
2026-04-24 19:03 49.43360 -2.60892 305 ft 13 kts 279°
2026-04-24 19:03 49.43364 -2.61032 303 ft 13 kts 267°
2026-04-24 19:03 49.43359 -2.61178 301 ft 14 kts 266°
2026-04-24 19:03 49.43360 -2.61241 300 ft 0 kts 284°
2026-04-24 19:05 49.43412 -2.61340 299 ft 13 kts 317°
2026-04-24 19:06 49.43457 -2.61344 299 ft 3 kts 53°
2026-04-24 19:06 49.43466 -2.61296 300 ft 12 kts 86°
2026-04-24 19:06 49.43479 -2.60848 307 ft 73 kts 84°
2026-04-24 19:06 49.43486 -2.59884 459 ft 100 kts 91°
2026-04-24 19:07 49.43335 -2.58847 613 ft 99 kts 111°
2026-04-24 19:07 49.42884 -2.58014 767 ft 105 kts 133°
2026-04-24 19:07 49.42514 -2.57482 939 ft 113 kts 131°
2026-04-24 19:07 49.41801 -2.56249 1413 ft 117 kts 128°
2026-04-24 19:08 49.41273 -2.55279 1845 ft 119 kts 125°
2026-04-24 19:08 49.40705 -2.54336 2198 ft 125 kts 147°
2026-04-24 19:08 49.39799 -2.53734 2172 ft 153 kts 154°
2026-04-24 19:08 49.38741 -2.53396 2260 ft 166 kts 182°
2026-04-24 19:09 49.37597 -2.53711 2114 ft 159 kts 186°
2026-04-24 19:09 49.36546 -2.54015 2306 ft 152 kts 185°
2026-04-24 19:09 49.35457 -2.54260 2092 ft 169 kts 184°
2026-04-24 19:09 49.34342 -2.54466 2288 ft 159 kts 184°
2026-04-24 19:10 49.33246 -2.54638 2296 ft 160 kts 180°
2026-04-24 19:10 49.32117 -2.54753 2233 ft 163 kts 179°
2026-04-24 19:10 49.30986 -2.54731 2224 ft 161 kts 173°
2026-04-24 19:10 49.29902 -2.54731 2220 ft 160 kts 176°
2026-04-24 19:11 49.28772 -2.54652 2244 ft 157 kts 173°
2026-04-24 19:11 49.27674 -2.54581 2152 ft 164 kts 174°
2026-04-24 19:11 49.26548 -2.54516 2264 ft 158 kts 174°
2026-04-24 19:11 49.25433 -2.54416 2240 ft 157 kts 168°
2026-04-24 19:12 49.24517 -2.53774 2466 ft 142 kts 139°
2026-04-24 19:12 49.23822 -2.52629 2287 ft 156 kts 117°
2026-04-24 19:12 49.23453 -2.51087 2261 ft 153 kts 111°
2026-04-24 19:12 49.23095 -2.49510 2135 ft 161 kts 108°
2026-04-24 19:13 49.22894 -2.48426 2196 ft 156 kts 105°
2026-04-24 19:13 49.22425 -2.46354 2187 ft 158 kts 110°
2026-04-24 19:13 49.22143 -2.44835 2222 ft 139 kts 105°
2026-04-24 19:13 49.21902 -2.43429 2156 ft 133 kts 105°
2026-04-24 19:14 49.21714 -2.42086 2156 ft 128 kts 103°
2026-04-24 19:14 49.21604 -2.41208 2180 ft 126 kts 101°
2026-04-24 19:14 49.21464 -2.39899 2189 ft 123 kts 101°
2026-04-24 19:14 49.21344 -2.38617 2175 ft 123 kts 103°
2026-04-24 19:15 49.21080 -2.37367 2160 ft 126 kts 109°
2026-04-24 19:15 49.20887 -2.36059 2161 ft 126 kts 107°
2026-04-24 19:15 49.20607 -2.34808 2152 ft 122 kts 109°
2026-04-24 19:15 49.20369 -2.33587 2171 ft 118 kts 108°
2026-04-24 19:16 49.19956 -2.31029 2002 ft 134 kts 96°
2026-04-24 19:16 49.19863 -2.29577 1746 ft 142 kts 90°
2026-04-24 19:16 49.20044 -2.28037 1221 ft 152 kts 76°
2026-04-24 19:17 49.20270 -2.26523 1042 ft 142 kts 81°
2026-04-24 19:17 49.20379 -2.25042 863 ft 139 kts 84°
2026-04-24 19:17 49.20471 -2.23581 716 ft 137 kts 83°
2026-04-24 19:17 49.20580 -2.22119 526 ft 139 kts 81°
2026-04-24 19:18 49.20706 -2.20670 327 ft 131 kts 83°
2026-04-24 19:18 49.20818 -2.19390 279 ft 109 kts 86°
2026-04-24 19:18 49.20866 -2.18745 276 ft 19 kts 82°
2026-04-24 19:18 49.20863 -2.18627 276 ft 12 kts 82°
2026-04-24 19:19 49.20882 -2.18492 275 ft 9 kts 85°
2026-04-24 19:19 49.20875 -2.18416 275 ft 7 kts 111°
2026-04-24 19:19 49.20850 -2.18359 277 ft 5 kts 127°
2026-04-24 19:19 49.20832 -2.18341 277 ft 0 kts 147°
2026-04-24 19:20 49.20786 -2.18319 278 ft 12 kts 186°
2026-04-24 19:20 49.20742 -2.18398 278 ft 11 kts 260°
2026-04-24 19:20 49.20733 -2.18473 278 ft 4 kts 216°
2026-04-24 19:20 49.20721 -2.18470 278 ft 0 kts 147°
2026-04-24 19:21 49.20718 -2.18467 278 ft 5 kts 145°
2026-04-24 19:22 49.20708 -2.18456 278 ft 0 kts 144°
2026-04-24 19:22 49.20707 -2.18456 278 ft 1 kts 144°
2026-04-24 19:22 49.20696 -2.18353 278 ft 13 kts 94°
2026-04-24 19:23 49.20693 -2.18280 278 ft 0 kts 92°